Time;durP1;ratioP1;P1;durP2;ratioP2;P2;SDS_P1;SDS_P2;PMS_P1;PMS_P2;Temp;Humidity;BMP_temperature;BMP_pressure;BME280_temperature;BME280_humidity;BME280_pressure;Samples;Min_cycle;Max_cycle;Signal;HPM_P1;HPM_P2
2023/12/07 00:01:00;;;;;;;12.70;6.55;;;;;;;;;;5033372;28;20911;-60
2023/12/07 00:03:25;;;;;;;13.02;6.75;;;;;;;;;;5033684;28;20555;-60
2023/12/07 00:05:50;;;;;;;15.85;8.43;;;;;;;;;;5033287;28;20022;-60
2023/12/07 00:08:15;;;;;;;16.50;8.27;;;;;;;;;;5028770;28;20057;-60
2023/12/07 00:10:40;;;;;;;15.27;8.10;;;;;;;;;;5021023;28;20551;-59
2023/12/07 00:13:05;;;;;;;14.80;6.85;;;;;;;;;;5025426;28;20036;-60
2023/12/07 00:15:31;;;;;;;14.13;7.28;;;;;;;;;;5033942;28;20053;-59
2023/12/07 00:17:56;;;;;;;14.27;7.17;;;;;;;;;;5033730;28;20489;-60
2023/12/07 00:20:21;;;;;;;15.53;7.83;;;;;;;;;;5027248;28;20030;-60
2023/12/07 00:22:46;;;;;;;14.65;7.85;;;;;;;;;;5024740;28;20041;-60
2023/12/07 00:25:11;;;;;;;14.20;6.93;;;;;;;;;;5033515;28;20017;-60
2023/12/07 00:27:36;;;;;;;14.80;7.95;;;;;;;;;;5023140;28;20045;-59
2023/12/07 00:30:03;;;;;;;14.43;7.22;;;;;;;;;;5023074;28;20072;-60
2023/12/07 00:32:28;;;;;;;17.58;8.18;;;;;;;;;;5024738;28;20425;-59
2023/12/07 00:34:53;;;;;;;16.45;8.25;;;;;;;;;;5031177;28;20025;-60
2023/12/07 00:37:18;;;;;;;13.63;6.85;;;;;;;;;;5032175;28;20034;-59
2023/12/07 00:39:43;;;;;;;14.23;7.50;;;;;;;;;;5032443;28;20076;-59
2023/12/07 00:42:09;;;;;;;13.63;7.47;;;;;;;;;;5032607;28;20057;-60
2023/12/07 00:44:38;;;;;;;12.20;6.82;;;;;;;;;;5030401;28;20017;-59
2023/12/07 00:47:04;;;;;;;13.63;7.47;;;;;;;;;;5024987;28;20049;-60
2023/12/07 00:49:29;;;;;;;14.33;7.30;;;;;;;;;;5032305;28;20045;-59
2023/12/07 00:51:54;;;;;;;13.55;7.18;;;;;;;;;;5028317;28;20496;-60
2023/12/07 00:54:19;;;;;;;17.02;8.63;;;;;;;;;;5027119;28;20029;-60
2023/12/07 00:56:44;;;;;;;16.85;8.32;;;;;;;;;;5032906;28;20056;-59
2023/12/07 00:59:09;;;;;;;14.85;7.78;;;;;;;;;;5033212;28;20682;-60
2023/12/07 01:01:35;;;;;;;15.85;8.32;;;;;;;;;;5018754;28;20040;-60
2023/12/07 01:04:00;;;;;;;20.27;9.73;;;;;;;;;;5032386;28;20021;-59
2023/12/07 01:06:25;;;;;;;18.73;9.23;;;;;;;;;;5030496;28;20036;-60
2023/12/07 01:08:50;;;;;;;19.45;9.30;;;;;;;;;;5030816;28;20025;-60
2023/12/07 01:11:15;;;;;;;16.73;7.83;;;;;;;;;;5018711;28;20497;-60
2023/12/07 01:13:40;;;;;;;20.27;9.23;;;;;;;;;;5042739;28;20389;-59
2023/12/07 01:16:06;;;;;;;17.73;8.48;;;;;;;;;;5031932;28;20443;-59
2023/12/07 01:18:31;;;;;;;18.07;8.63;;;;;;;;;;5023115;28;20030;-60
2023/12/07 01:20:56;;;;;;;21.27;10.05;;;;;;;;;;5020692;28;20025;-60
2023/12/07 01:23:21;;;;;;;18.67;9.05;;;;;;;;;;5024222;28;20032;-60
2023/12/07 01:25:46;;;;;;;18.23;8.32;;;;;;;;;;5023994;28;20045;-59
2023/12/07 01:28:11;;;;;;;18.73;8.87;;;;;;;;;;5032794;28;20430;-59
2023/12/07 01:30:36;;;;;;;17.53;8.20;;;;;;;;;;5034371;28;20049;-59
2023/12/07 01:33:02;;;;;;;18.67;8.65;;;;;;;;;;5034524;28;20072;-59
2023/12/07 01:35:27;;;;;;;17.50;8.50;;;;;;;;;;5033696;28;20070;-59
2023/12/07 01:37:52;;;;;;;17.33;8.48;;;;;;;;;;5040670;28;20025;-59
2023/12/07 01:40:17;;;;;;;19.75;9.18;;;;;;;;;;5035041;28;20038;-60
2023/12/07 01:42:49;;;;;;;19.52;8.88;;;;;;;;;;5029408;28;20044;-60
2023/12/07 01:45:15;;;;;;;18.98;9.10;;;;;;;;;;5030418;28;20022;-59
2023/12/07 01:47:40;;;;;;;19.17;8.57;;;;;;;;;;5032130;28;20560;-60
2023/12/07 01:50:06;;;;;;;22.92;10.00;;;;;;;;;;5029998;28;20033;-59
2023/12/07 01:52:31;;;;;;;21.65;9.27;;;;;;;;;;5020761;28;20026;-59
2023/12/07 01:54:57;;;;;;;16.50;8.07;;;;;;;;;;5024371;28;20041;-59
2023/12/07 01:57:22;;;;;;;19.58;8.23;;;;;;;;;;5026386;28;20447;-59
2023/12/07 01:59:48;;;;;;;18.10;8.77;;;;;;;;;;5031984;28;20067;-59
2023/12/07 02:02:13;;;;;;;21.02;8.82;;;;;;;;;;5028267;28;20463;-59
2023/12/07 02:04:38;;;;;;;21.38;8.77;;;;;;;;;;5029327;28;20029;-59
2023/12/07 02:07:04;;;;;;;19.17;9.47;;;;;;;;;;5011493;28;20026;-60
2023/12/07 02:09:29;;;;;;;22.88;10.00;;;;;;;;;;5020005;28;20369;-59
2023/12/07 02:11:54;;;;;;;20.47;9.73;;;;;;;;;;5028115;28;20056;-59
2023/12/07 02:14:20;;;;;;;22.00;9.50;;;;;;;;;;5023057;28;20033;-59
2023/12/07 02:16:48;;;;;;;22.73;10.18;;;;;;;;;;5020332;28;20009;-59
2023/12/07 02:19:43;;;;;;;22.10;10.20;;;;;;;;;;5018345;28;20040;-59
2023/12/07 02:22:12;;;;;;;19.70;8.98;;;;;;;;;;5029499;28;20025;-61
2023/12/07 02:24:37;;;;;;;23.58;9.48;;;;;;;;;;5029987;28;20048;-61
2023/12/07 02:27:02;;;;;;;19.42;8.85;;;;;;;;;;5025762;28;22009;-61
2023/12/07 02:29:27;;;;;;;19.53;9.67;;;;;;;;;;5029331;28;20107;-61
2023/12/07 02:31:53;;;;;;;20.27;9.52;;;;;;;;;;5020723;28;20501;-60
2023/12/07 02:34:19;;;;;;;21.60;8.73;;;;;;;;;;5031586;28;20523;-59
2023/12/07 02:36:46;;;;;;;20.70;10.30;;;;;;;;;;5031164;28;20037;-58
2023/12/07 02:39:12;;;;;;;21.98;9.60;;;;;;;;;;5031276;28;20021;-59
2023/12/07 02:41:37;;;;;;;22.23;9.85;;;;;;;;;;5020624;28;20104;-59
2023/12/07 02:44:03;;;;;;;20.73;9.85;;;;;;;;;;5025374;28;20466;-59
2023/12/07 02:46:28;;;;;;;19.13;9.30;;;;;;;;;;5015666;28;20045;-60
2023/12/07 02:48:54;;;;;;;18.33;8.83;;;;;;;;;;5013505;28;20029;-59
2023/12/07 02:51:19;;;;;;;20.00;8.88;;;;;;;;;;5030293;28;20033;-59
2023/12/07 02:53:44;;;;;;;21.42;10.02;;;;;;;;;;5030665;28;20113;-59
2023/12/07 02:56:09;;;;;;;19.75;9.70;;;;;;;;;;5030752;28;20033;-59
2023/12/07 02:58:34;;;;;;;21.42;9.70;;;;;;;;;;5021306;28;20428;-59
2023/12/07 03:01:00;;;;;;;18.40;8.60;;;;;;;;;;5019152;28;20021;-59
2023/12/07 03:03:25;;;;;;;21.90;9.85;;;;;;;;;;5023870;28;20026;-60
2023/12/07 03:05:50;;;;;;;18.15;8.48;;;;;;;;;;5028506;28;20421;-59
2023/12/07 03:08:16;;;;;;;17.73;8.73;;;;;;;;;;5030030;28;20018;-60
2023/12/07 03:10:41;;;;;;;18.70;9.17;;;;;;;;;;5030541;28;20025;-59
2023/12/07 03:13:06;;;;;;;17.63;8.60;;;;;;;;;;5030275;28;20038;-59
2023/12/07 03:15:31;;;;;;;23.90;10.70;;;;;;;;;;5027159;28;20033;-59
2023/12/07 03:17:56;;;;;;;20.58;9.48;;;;;;;;;;5019669;28;20030;-59
2023/12/07 03:20:21;;;;;;;20.58;8.88;;;;;;;;;;5016373;28;20033;-59
2023/12/07 03:22:46;;;;;;;22.40;9.97;;;;;;;;;;5010359;28;20466;-59
2023/12/07 03:25:12;;;;;;;17.23;9.10;;;;;;;;;;5010918;28;20049;-59
2023/12/07 03:27:37;;;;;;;20.20;9.30;;;;;;;;;;5011768;28;20034;-59
2023/12/07 03:30:02;;;;;;;20.73;9.32;;;;;;;;;;5011564;28;20493;-60
2023/12/07 03:32:27;;;;;;;17.77;8.57;;;;;;;;;;5020810;28;20021;-59
2023/12/07 03:34:52;;;;;;;17.73;8.30;;;;;;;;;;5027738;28;20526;-59
2023/12/07 03:37:17;;;;;;;21.13;10.05;;;;;;;;;;5030596;28;20093;-59
2023/12/07 03:39:43;;;;;;;20.60;10.17;;;;;;;;;;5030393;28;20018;-60
2023/12/07 03:42:08;;;;;;;20.23;9.43;;;;;;;;;;5029650;28;20049;-60
2023/12/07 03:44:33;;;;;;;15.27;8.20;;;;;;;;;;5029939;28;20401;-59
2023/12/07 03:46:58;;;;;;;20.10;9.27;;;;;;;;;;5025576;28;20031;-59
2023/12/07 03:49:23;;;;;;;17.93;9.00;;;;;;;;;;5024449;28;20026;-59
2023/12/07 03:51:49;;;;;;;21.33;9.77;;;;;;;;;;5027684;28;20021;-59
2023/12/07 03:54:14;;;;;;;19.57;9.93;;;;;;;;;;5024203;28;20029;-60
2023/12/07 03:56:40;;;;;;;18.13;8.82;;;;;;;;;;5031471;28;20067;-60
2023/12/07 03:59:05;;;;;;;20.05;9.27;;;;;;;;;;5031605;28;20138;-60
2023/12/07 04:01:31;;;;;;;18.43;8.83;;;;;;;;;;5030084;28;20072;-61
2023/12/07 04:03:56;;;;;;;17.48;8.88;;;;;;;;;;5030315;28;20029;-61
2023/12/07 04:06:22;;;;;;;16.33;8.40;;;;;;;;;;5027131;28;20028;-60
2023/12/07 04:08:47;;;;;;;20.23;8.77;;;;;;;;;;5020679;28;20514;-60
2023/12/07 04:11:12;;;;;;;17.70;8.80;;;;;;;;;;5029423;28;20366;-60
2023/12/07 04:13:38;;;;;;;19.73;9.52;;;;;;;;;;5030538;28;20029;-60
2023/12/07 04:16:03;;;;;;;17.43;8.90;;;;;;;;;;5020801;28;20018;-61
2023/12/07 04:18:29;;;;;;;17.05;8.35;;;;;;;;;;5030889;28;20435;-60
2023/12/07 04:20:54;;;;;;;16.75;8.50;;;;;;;;;;5029186;28;20032;-60
2023/12/07 04:23:19;;;;;;;17.17;8.30;;;;;;;;;;5020747;28;20021;-61
2023/12/07 04:25:45;;;;;;;16.75;8.13;;;;;;;;;;5025949;28;20025;-61
2023/12/07 04:28:10;;;;;;;15.73;7.80;;;;;;;;;;5021864;28;20436;-62
2023/12/07 04:30:35;;;;;;;18.20;9.27;;;;;;;;;;5030029;28;20032;-61
2023/12/07 04:33:01;;;;;;;16.70;8.38;;;;;;;;;;5029756;28;20024;-61
2023/12/07 04:35:28;;;;;;;16.63;8.27;;;;;;;;;;5030153;28;20018;-61
2023/12/07 04:37:53;;;;;;;18.52;9.32;;;;;;;;;;5024696;28;20485;-61
2023/12/07 04:40:19;;;;;;;21.67;9.68;;;;;;;;;;5011947;28;20022;-61
2023/12/07 04:42:44;;;;;;;19.95;9.60;;;;;;;;;;5021730;28;20032;-62
2023/12/07 04:45:09;;;;;;;21.88;10.02;;;;;;;;;;5033403;28;20033;-60
2023/12/07 04:47:34;;;;;;;22.33;10.57;;;;;;;;;;5024925;28;20022;-60
2023/12/07 04:49:59;;;;;;;18.33;9.10;;;;;;;;;;5021676;28;20456;-60
2023/12/07 04:52:24;;;;;;;19.17;9.33;;;;;;;;;;5012808;28;20119;-62
2023/12/07 04:54:50;;;;;;;18.73;9.43;;;;;;;;;;5025658;28;20021;-61
2023/12/07 04:57:15;;;;;;;19.83;9.25;;;;;;;;;;5027215;28;20036;-61
2023/12/07 04:59:40;;;;;;;20.63;10.63;;;;;;;;;;5027563;28;20517;-61
2023/12/07 05:02:06;;;;;;;21.20;9.77;;;;;;;;;;5021418;28;20025;-61
2023/12/07 05:04:32;;;;;;;23.23;10.25;;;;;;;;;;5028919;28;20025;-61
2023/12/07 05:06:57;;;;;;;18.73;9.25;;;;;;;;;;5033235;28;20024;-61
2023/12/07 05:09:22;;;;;;;19.20;9.23;;;;;;;;;;5033023;28;20378;-60
2023/12/07 05:11:47;;;;;;;19.47;9.87;;;;;;;;;;5030093;28;20032;-61
2023/12/07 05:14:12;;;;;;;20.92;9.93;;;;;;;;;;5017433;28;20716;-60
2023/12/07 05:16:38;;;;;;;23.88;10.10;;;;;;;;;;5023268;28;20085;-61
2023/12/07 05:19:03;;;;;;;24.13;10.20;;;;;;;;;;5032993;28;20240;-61
2023/12/07 05:21:28;;;;;;;20.23;9.63;;;;;;;;;;5028369;28;20033;-60
2023/12/07 05:23:53;;;;;;;23.90;10.97;;;;;;;;;;5021483;28;20504;-60
2023/12/07 05:26:18;;;;;;;21.77;9.85;;;;;;;;;;5029650;28;20497;-60
2023/12/07 05:28:43;;;;;;;19.33;9.35;;;;;;;;;;5028357;28;20060;-61
2023/12/07 05:31:09;;;;;;;19.90;9.53;;;;;;;;;;5020653;28;20053;-61
2023/12/07 05:33:34;;;;;;;19.35;9.55;;;;;;;;;;5017129;28;20104;-61
2023/12/07 05:36:00;;;;;;;19.98;9.00;;;;;;;;;;5026332;28;20469;-60
2023/12/07 05:38:25;;;;;;;19.45;9.25;;;;;;;;;;5026361;28;20079;-60
2023/12/07 05:40:50;;;;;;;20.23;9.33;;;;;;;;;;5016521;28;20045;-61
2023/12/07 05:43:16;;;;;;;19.48;9.13;;;;;;;;;;5027873;28;20017;-60
2023/12/07 05:45:41;;;;;;;18.63;9.13;;;;;;;;;;5025368;28;20021;-61
2023/12/07 05:48:06;;;;;;;21.50;9.37;;;;;;;;;;5018465;28;20392;-60
2023/12/07 05:50:31;;;;;;;24.88;11.13;;;;;;;;;;5028649;28;20025;-61
2023/12/07 05:52:56;;;;;;;20.30;10.43;;;;;;;;;;5027190;28;20082;-60
2023/12/07 05:55:22;;;;;;;21.90;10.43;;;;;;;;;;5023499;28;20037;-60
2023/12/07 05:57:47;;;;;;;21.67;10.82;;;;;;;;;;5015621;28;20029;-60
2023/12/07 06:00:12;;;;;;;24.10;11.88;;;;;;;;;;5022904;28;20033;-60
2023/12/07 06:02:38;;;;;;;21.83;10.48;;;;;;;;;;5022563;28;20025;-60
2023/12/07 06:05:04;;;;;;;25.70;12.53;;;;;;;;;;5017007;28;20018;-61
2023/12/07 06:07:30;;;;;;;22.95;10.98;;;;;;;;;;5023522;28;20055;-61
2023/12/07 06:09:55;;;;;;;23.50;11.40;;;;;;;;;;5012954;28;20102;-61
2023/12/07 06:12:21;;;;;;;19.33;10.05;;;;;;;;;;5019299;28;20432;-61
2023/12/07 06:14:46;;;;;;;23.92;10.98;;;;;;;;;;5021773;28;20037;-60
2023/12/07 06:17:12;;;;;;;21.40;11.23;;;;;;;;;;5028436;28;20025;-60
2023/12/07 06:19:37;;;;;;;19.85;10.48;;;;;;;;;;5022435;28;20029;-61
2023/12/07 06:22:02;;;;;;;21.77;10.68;;;;;;;;;;5041125;28;20036;-60
2023/12/07 06:24:27;;;;;;;21.00;10.73;;;;;;;;;;5024793;28;20061;-61
2023/12/07 06:26:52;;;;;;;22.60;9.93;;;;;;;;;;5020309;28;20120;-61
2023/12/07 06:29:18;;;;;;;26.73;12.27;;;;;;;;;;5012058;28;20032;-61
2023/12/07 06:31:43;;;;;;;22.92;10.60;;;;;;;;;;5017735;28;20486;-59
2023/12/07 06:34:09;;;;;;;21.17;10.27;;;;;;;;;;5020470;28;20122;-60
2023/12/07 06:36:35;;;;;;;21.25;10.30;;;;;;;;;;5020224;28;20165;-60
2023/12/07 06:39:01;;;;;;;24.23;11.48;;;;;;;;;;5011165;28;20489;-60
2023/12/07 06:41:26;;;;;;;20.92;10.80;;;;;;;;;;5016903;28;20060;-60
2023/12/07 06:43:51;;;;;;;22.53;11.20;;;;;;;;;;5028677;28;20523;-62
2023/12/07 06:46:17;;;;;;;23.58;11.32;;;;;;;;;;5030383;28;20071;-63
2023/12/07 06:48:42;;;;;;;22.73;10.33;;;;;;;;;;5026802;28;20473;-62
2023/12/07 06:51:07;;;;;;;25.73;11.98;;;;;;;;;;5029177;28;20025;-62
2023/12/07 06:53:32;;;;;;;27.60;12.38;;;;;;;;;;5025387;28;20493;-62
2023/12/07 06:55:57;;;;;;;22.17;10.37;;;;;;;;;;5030767;28;20107;-62
2023/12/07 06:58:22;;;;;;;20.80;10.43;;;;;;;;;;5030213;28;20017;-62
2023/12/07 07:00:49;;;;;;;24.27;11.37;;;;;;;;;;5029541;28;20029;-62
2023/12/07 07:03:14;;;;;;;23.77;11.15;;;;;;;;;;5025699;28;20507;-63
2023/12/07 07:05:39;;;;;;;23.70;11.35;;;;;;;;;;5020867;28;20048;-61
2023/12/07 07:08:06;;;;;;;21.70;10.40;;;;;;;;;;5015659;28;20457;-60
2023/12/07 07:10:31;;;;;;;26.48;12.30;;;;;;;;;;5023613;28;20442;-61
2023/12/07 07:13:00;;;;;;;22.00;10.95;;;;;;;;;;5026450;28;20056;-61
2023/12/07 07:15:25;;;;;;;24.98;13.18;;;;;;;;;;5026019;28;20729;-63
2023/12/07 07:17:50;;;;;;;27.95;13.02;;;;;;;;;;5026965;28;20029;-60
2023/12/07 07:20:15;;;;;;;25.58;12.02;;;;;;;;;;5027308;28;20498;-62
2023/12/07 07:22:40;;;;;;;23.23;11.60;;;;;;;;;;5022188;28;20143;-61
2023/12/07 07:25:06;;;;;;;26.87;13.47;;;;;;;;;;5026334;28;20030;-61
2023/12/07 07:27:31;;;;;;;24.13;11.47;;;;;;;;;;5026991;28;20025;-61
2023/12/07 07:29:56;;;;;;;23.77;11.93;;;;;;;;;;5026485;28;20451;-62
2023/12/07 07:32:21;;;;;;;21.02;10.15;;;;;;;;;;5016859;28;20037;-63
2023/12/07 07:34:46;;;;;;;23.02;11.50;;;;;;;;;;5016392;28;20022;-63
2023/12/07 07:37:11;;;;;;;22.73;11.10;;;;;;;;;;5026355;28;20108;-62
2023/12/07 07:39:37;;;;;;;20.80;9.80;;;;;;;;;;5027122;28;20029;-63
2023/12/07 07:42:02;;;;;;;25.73;11.85;;;;;;;;;;5018493;28;20029;-62
2023/12/07 07:44:27;;;;;;;20.60;10.73;;;;;;;;;;5026703;28;20426;-62
2023/12/07 07:46:52;;;;;;;23.33;11.27;;;;;;;;;;5029859;28;20030;-63
2023/12/07 07:49:17;;;;;;;22.80;11.07;;;;;;;;;;5029578;28;20038;-63
2023/12/07 07:51:43;;;;;;;23.47;11.30;;;;;;;;;;5022236;28;20424;-63
2023/12/07 07:54:08;;;;;;;22.20;10.85;;;;;;;;;;5022721;28;20034;-63
2023/12/07 07:56:33;;;;;;;25.50;12.10;;;;;;;;;;5018876;28;20025;-63
2023/12/07 07:59:00;;;;;;;24.60;11.68;;;;;;;;;;5019795;28;20034;-63
2023/12/07 08:01:25;;;;;;;24.95;11.88;;;;;;;;;;5029012;28;20025;-62
2023/12/07 08:03:51;;;;;;;24.80;10.98;;;;;;;;;;5030015;28;20068;-60
2023/12/07 08:06:17;;;;;;;22.25;11.05;;;;;;;;;;5024729;28;20026;-62
2023/12/07 08:08:42;;;;;;;21.67;11.07;;;;;;;;;;5021145;28;20028;-62
2023/12/07 08:11:07;;;;;;;23.93;11.53;;;;;;;;;;5026309;28;20075;-61
2023/12/07 08:13:32;;;;;;;22.95;11.48;;;;;;;;;;5016035;28;20034;-63
2023/12/07 08:15:57;;;;;;;23.90;11.70;;;;;;;;;;5030241;28;20065;-62
2023/12/07 08:18:22;;;;;;;26.73;12.77;;;;;;;;;;5027278;28;20105;-63
2023/12/07 08:20:47;;;;;;;27.30;13.27;;;;;;;;;;5033996;28;20022;-62
2023/12/07 08:23:13;;;;;;;25.23;12.38;;;;;;;;;;5027863;28;20026;-62
2023/12/07 08:25:38;;;;;;;23.67;11.20;;;;;;;;;;5022456;28;20049;-62
2023/12/07 08:28:03;;;;;;;24.30;11.90;;;;;;;;;;5014305;28;20018;-62
2023/12/07 08:30:28;;;;;;;26.53;13.00;;;;;;;;;;5018628;28;20150;-62
2023/12/07 08:32:53;;;;;;;26.98;13.27;;;;;;;;;;5022275;28;20112;-62
2023/12/07 08:35:18;;;;;;;24.63;12.98;;;;;;;;;;5022505;28;20049;-62
2023/12/07 08:37:44;;;;;;;27.23;12.68;;;;;;;;;;5034451;28;20088;-62
2023/12/07 08:40:11;;;;;;;26.48;12.95;;;;;;;;;;5032527;28;20040;-62
2023/12/07 08:42:36;;;;;;;26.27;12.18;;;;;;;;;;5035774;28;20021;-62
2023/12/07 08:45:01;;;;;;;23.45;12.30;;;;;;;;;;5016617;28;20121;-62
2023/12/07 08:47:28;;;;;;;28.27;13.95;;;;;;;;;;5025523;28;20022;-62
2023/12/07 08:49:53;;;;;;;30.27;13.52;;;;;;;;;;5015004;28;20028;-62
2023/12/07 08:52:18;;;;;;;27.77;12.73;;;;;;;;;;5012862;28;20026;-62
2023/12/07 08:54:44;;;;;;;28.57;14.10;;;;;;;;;;5015252;28;20464;-62
2023/12/07 08:57:09;;;;;;;33.10;15.38;;;;;;;;;;5020909;28;20533;-62
2023/12/07 08:59:34;;;;;;;34.67;14.63;;;;;;;;;;5022320;28;20446;-59
2023/12/07 09:02:00;;;;;;;29.85;14.50;;;;;;;;;;5014091;28;20034;-61
2023/12/07 09:04:25;;;;;;;30.02;14.60;;;;;;;;;;5025670;28;20060;-61
2023/12/07 09:06:50;;;;;;;34.78;15.27;;;;;;;;;;5022029;28;20104;-61
2023/12/07 09:09:15;;;;;;;33.85;15.65;;;;;;;;;;5033399;28;20049;-61
2023/12/07 09:11:40;;;;;;;30.60;13.98;;;;;;;;;;5032536;28;20029;-61
2023/12/07 09:14:05;;;;;;;28.13;12.65;;;;;;;;;;5028551;28;20026;-61
2023/12/07 09:16:30;;;;;;;29.15;13.23;;;;;;;;;;5021262;28;20062;-61
2023/12/07 09:18:56;;;;;;;22.15;10.70;;;;;;;;;;5013435;28;20469;-62
2023/12/07 09:21:21;;;;;;;24.08;11.18;;;;;;;;;;5022967;28;20109;-62
2023/12/07 09:23:46;;;;;;;21.97;11.17;;;;;;;;;;5022528;28;20033;-62
2023/12/07 09:26:11;;;;;;;28.02;10.48;;;;;;;;;;5012373;28;20135;-61
2023/12/07 09:28:36;;;;;;;21.87;10.40;;;;;;;;;;5013600;28;20010;-62
2023/12/07 09:31:02;;;;;;;22.40;10.20;;;;;;;;;;5013231;28;20093;-62
2023/12/07 09:33:27;;;;;;;25.02;9.90;;;;;;;;;;5027810;28;20033;-62
2023/12/07 09:35:53;;;;;;;20.70;11.20;;;;;;;;;;5029942;28;20068;-62
2023/12/07 09:38:18;;;;;;;23.65;9.40;;;;;;;;;;5020690;28;20018;-61
2023/12/07 09:40:45;;;;;;;19.70;9.87;;;;;;;;;;5010634;28;20080;-62
2023/12/07 09:43:10;;;;;;;21.35;10.35;;;;;;;;;;5012546;28;20152;-61
2023/12/07 09:45:35;;;;;;;23.83;10.65;;;;;;;;;;5012956;28;20485;-62
2023/12/07 09:48:01;;;;;;;20.30;10.93;;;;;;;;;;5021102;28;20097;-60
2023/12/07 09:50:27;;;;;;;23.55;10.82;;;;;;;;;;5022036;28;20021;-62
2023/12/07 09:52:55;;;;;;;21.35;11.23;;;;;;;;;;5023474;28;20017;-62
2023/12/07 09:55:22;;;;;;;20.45;9.52;;;;;;;;;;5018521;28;20497;-63
2023/12/07 09:57:47;;;;;;;;;;;;;;;;;;5021341;28;20021;-62
2023/12/07 10:00:14;;;;;;;22.30;9.60;;;;;;;;;;5012009;28;20293;-60
2023/12/07 10:02:41;;;;;;;21.83;9.50;;;;;;;;;;5012238;28;20411;-61
2023/12/07 10:05:06;;;;;;;22.27;10.80;;;;;;;;;;5022026;28;20096;-61
2023/12/07 10:07:33;;;;;;;19.65;9.35;;;;;;;;;;5028517;28;20033;-61
2023/12/07 10:09:58;;;;;;;;;;;;;;;;;;5012849;28;20026;-62
2023/12/07 10:12:24;;;;;;;20.27;9.88;;;;;;;;;;5022700;28;19971;-63
2023/12/07 10:14:49;;;;;;;20.08;10.45;;;;;;;;;;5025259;28;20030;-62
2023/12/07 10:17:14;;;;;;;19.90;9.38;;;;;;;;;;5032140;28;20424;-62
2023/12/07 10:19:39;;;;;;;21.08;9.10;;;;;;;;;;5032182;28;20024;-62
2023/12/07 10:22:12;;;;;;;21.88;10.20;;;;;;;;;;5021500;28;20064;-61
2023/12/07 10:24:38;;;;;;;21.10;9.77;;;;;;;;;;5015548;28;20371;-60
2023/12/07 10:27:06;;;;;;;20.50;10.40;;;;;;;;;;5019083;28;20061;-64
2023/12/07 10:29:34;;;;;;;21.48;10.05;;;;;;;;;;5020371;28;20037;-62
2023/12/07 10:32:01;;;;;;;23.58;12.77;;;;;;;;;;5011494;28;20448;-62
2023/12/07 10:34:26;;;;;;;21.13;9.93;;;;;;;;;;5011696;28;20026;-60
2023/12/07 10:36:52;;;;;;;23.95;10.48;;;;;;;;;;5012686;28;20020;-60
2023/12/07 10:39:18;;;;;;;20.42;10.35;;;;;;;;;;5020365;28;20401;-63
2023/12/07 10:41:45;;;;;;;21.90;10.10;;;;;;;;;;5028972;28;20102;-63
2023/12/07 10:44:13;;;;;;;22.80;10.35;;;;;;;;;;5025723;28;20052;-62
2023/12/07 10:46:39;;;;;;;21.48;10.38;;;;;;;;;;5023674;28;20025;-61
2023/12/07 10:49:05;;;;;;;22.30;10.30;;;;;;;;;;5019370;28;20086;-61
2023/12/07 10:51:51;;;;;;;24.80;10.73;;;;;;;;;;5015007;28;20033;-61
2023/12/07 10:54:18;;;;;;;20.45;9.90;;;;;;;;;;5023957;28;20040;-62
2023/12/07 10:56:44;;;;;;;20.90;10.48;;;;;;;;;;5024516;28;20024;-62
2023/12/07 10:59:13;;;;;;;23.52;10.30;;;;;;;;;;5036257;28;20033;-61
2023/12/07 11:01:39;;;;;;;21.63;10.23;;;;;;;;;;5039104;28;20055;-61
2023/12/07 11:04:05;;;;;;;20.52;9.85;;;;;;;;;;5029363;28;20028;-61
2023/12/07 11:06:30;;;;;;;19.85;9.77;;;;;;;;;;5021187;28;20029;-61
2023/12/07 11:08:58;;;;;;;22.80;12.87;;;;;;;;;;5022117;28;20021;-62
2023/12/07 11:11:35;;;;;;;24.23;10.00;;;;;;;;;;5016864;28;20421;-63
2023/12/07 11:14:03;;;;;;;20.17;9.82;;;;;;;;;;5019266;28;20021;-60
2023/12/07 11:16:32;;;;;;;21.83;10.23;;;;;;;;;;5010926;28;20031;-63
2023/12/07 11:19:01;;;;;;;20.50;9.40;;;;;;;;;;5022578;28;20032;-62
2023/12/07 11:21:27;;;;;;;23.25;10.30;;;;;;;;;;5016029;28;20018;-62
2023/12/07 11:23:52;;;;;;;19.92;10.45;;;;;;;;;;5021399;28;20018;-62
2023/12/07 11:26:24;;;;;;;20.48;9.40;;;;;;;;;;5017451;28;20026;-62
2023/12/07 11:28:49;;;;;;;25.17;10.90;;;;;;;;;;5012191;28;20045;-62
2023/12/07 11:31:15;;;;;;;21.63;9.67;;;;;;;;;;5011276;28;20466;-62
2023/12/07 11:33:41;;;;;;;21.40;9.90;;;;;;;;;;5013698;28;20102;-62
2023/12/07 11:36:07;;;;;;;20.58;10.35;;;;;;;;;;5018523;28;20018;-63
2023/12/07 11:38:32;;;;;;;19.95;9.60;;;;;;;;;;5011621;28;20022;-62
2023/12/07 11:40:57;;;;;;;21.00;10.93;;;;;;;;;;5019529;28;20056;-62
2023/12/07 11:43:32;;;;;;;20.27;9.57;;;;;;;;;;5010665;28;20478;-62
2023/12/07 11:45:57;;;;;;;23.25;10.18;;;;;;;;;;5012968;28;20481;-62
2023/12/07 11:48:22;;;;;;;20.92;10.30;;;;;;;;;;5010767;28;20025;-62
2023/12/07 11:51:03;;;;;;;21.83;10.40;;;;;;;;;;5016688;28;20073;-62
2023/12/07 11:53:30;;;;;;;19.33;9.75;;;;;;;;;;5018490;28;20040;-62
2023/12/07 11:55:55;;;;;;;21.52;10.50;;;;;;;;;;5013665;28;20116;-62
2023/12/07 11:58:21;;;;;;;21.65;10.48;;;;;;;;;;5018657;28;20032;-62
2023/12/07 12:00:46;;;;;;;22.30;11.07;;;;;;;;;;5010211;28;20371;-63
2023/12/07 12:03:12;;;;;;;26.08;11.73;;;;;;;;;;5009112;28;20697;-61
2023/12/07 12:05:40;;;;;;;21.92;10.25;;;;;;;;;;5024506;28;20045;-62
2023/12/07 12:08:05;;;;;;;21.80;11.30;;;;;;;;;;5013682;28;20485;-62
2023/12/07 12:10:30;;;;;;;20.27;10.30;;;;;;;;;;5026278;28;20032;-61
2023/12/07 12:12:55;;;;;;;21.40;10.65;;;;;;;;;;5021037;28;20103;-62
2023/12/07 12:15:20;;;;;;;19.17;9.95;;;;;;;;;;5027885;28;20067;-62
2023/12/07 12:17:46;;;;;;;22.50;11.17;;;;;;;;;;5020948;28;20109;-62
2023/12/07 12:20:17;;;;;;;19.60;10.30;;;;;;;;;;5010611;28;20090;-62
2023/12/07 12:22:42;;;;;;;21.58;11.25;;;;;;;;;;5008791;28;20022;-62
2023/12/07 12:25:07;;;;;;;19.83;10.18;;;;;;;;;;5016004;28;20075;-62
2023/12/07 12:27:33;;;;;;;20.75;10.57;;;;;;;;;;5014413;28;20037;-62
2023/12/07 12:29:58;;;;;;;20.17;10.15;;;;;;;;;;5014090;28;20017;-62
2023/12/07 12:32:24;;;;;;;20.90;9.95;;;;;;;;;;5016549;28;20449;-63
2023/12/07 12:34:52;;;;;;;19.55;10.15;;;;;;;;;;5015771;28;20045;-62
2023/12/07 12:37:17;;;;;;;19.52;9.18;;;;;;;;;;5019375;28;20020;-62
2023/12/07 12:39:43;;;;;;;18.85;9.88;;;;;;;;;;5030120;28;20478;-62
2023/12/07 12:42:11;;;;;;;18.83;9.27;;;;;;;;;;5029403;28;20025;-62
2023/12/07 12:44:38;;;;;;;19.13;10.27;;;;;;;;;;5030243;28;20049;-62
2023/12/07 12:47:04;;;;;;;20.13;9.73;;;;;;;;;;5025644;28;20107;-62
2023/12/07 12:49:36;;;;;;;20.38;10.30;;;;;;;;;;5023832;28;20021;-62
2023/12/07 12:52:01;;;;;;;18.58;9.98;;;;;;;;;;5021141;28;20026;-62
2023/12/07 12:54:30;;;;;;;22.00;11.23;;;;;;;;;;5029768;28;20037;-62
2023/12/07 12:56:55;;;;;;;21.17;10.55;;;;;;;;;;5030043;28;20029;-63
2023/12/07 12:59:22;;;;;;;20.23;10.13;;;;;;;;;;5027097;28;20397;-62
2023/12/07 13:01:47;;;;;;;24.77;11.23;;;;;;;;;;5029224;28;20485;-61
2023/12/07 13:04:12;;;;;;;20.17;10.70;;;;;;;;;;5017477;28;20064;-61
2023/12/07 13:06:39;;;;;;;20.42;11.00;;;;;;;;;;5022270;28;20056;-62
2023/12/07 13:09:04;;;;;;;20.75;10.80;;;;;;;;;;5025203;28;20040;-62
2023/12/07 13:11:29;;;;;;;22.50;11.50;;;;;;;;;;5020272;28;20175;-62
2023/12/07 13:13:55;;;;;;;23.40;11.13;;;;;;;;;;5023909;28;20095;-61
2023/12/07 13:16:21;;;;;;;22.63;10.88;;;;;;;;;;5039782;28;20100;-63
2023/12/07 13:18:46;;;;;;;20.45;10.32;;;;;;;;;;5031974;28;20032;-62
2023/12/07 13:21:11;;;;;;;24.80;11.70;;;;;;;;;;5044060;28;20063;-62
2023/12/07 13:23:37;;;;;;;23.23;11.23;;;;;;;;;;5034945;28;20040;-62
2023/12/07 13:26:02;;;;;;;20.55;9.95;;;;;;;;;;5016164;28;20028;-62
2023/12/07 13:28:27;;;;;;;17.53;9.40;;;;;;;;;;5023795;28;20490;-62
2023/12/07 13:30:53;;;;;;;24.10;11.67;;;;;;;;;;5012813;28;20053;-62
2023/12/07 13:33:18;;;;;;;25.52;11.82;;;;;;;;;;5023688;28;20009;-62
2023/12/07 13:35:44;;;;;;;22.98;12.13;;;;;;;;;;5030227;28;20030;-62
2023/12/07 13:38:09;;;;;;;27.13;14.37;;;;;;;;;;5020846;28;20209;-62
2023/12/07 13:40:37;;;;;;;32.33;13.20;;;;;;;;;;5012675;28;20092;-62
2023/12/07 13:43:03;;;;;;;23.67;11.48;;;;;;;;;;5013098;28;20014;-62
2023/12/07 13:45:28;;;;;;;24.55;12.15;;;;;;;;;;5023809;28;20040;-62
2023/12/07 13:47:53;;;;;;;24.42;11.75;;;;;;;;;;5021688;28;20026;-62
2023/12/07 13:50:18;;;;;;;21.88;11.13;;;;;;;;;;5030024;28;20024;-62
2023/12/07 13:52:43;;;;;;;25.00;12.93;;;;;;;;;;5028287;28;20048;-62
2023/12/07 13:55:09;;;;;;;23.47;11.90;;;;;;;;;;5019557;28;20516;-61
2023/12/07 13:57:34;;;;;;;23.88;12.43;;;;;;;;;;5020128;28;20028;-62
2023/12/07 13:59:59;;;;;;;23.27;11.03;;;;;;;;;;5016592;28;21531;-62
2023/12/07 14:02:25;;;;;;;21.98;11.23;;;;;;;;;;5019383;28;20018;-61
2023/12/07 14:04:50;;;;;;;25.10;12.75;;;;;;;;;;5014925;28;20026;-63
2023/12/07 14:07:16;;;;;;;25.92;11.60;;;;;;;;;;5013531;28;20485;-62
2023/12/07 14:09:46;;;;;;;24.40;11.95;;;;;;;;;;5016329;28;20021;-61
2023/12/07 14:12:12;;;;;;;27.98;14.35;;;;;;;;;;5023827;28;20033;-63
2023/12/07 14:14:38;;;;;;;23.17;11.68;;;;;;;;;;5031323;28;20029;-62